createdAt,value
2022-10-06T00:01:54.873Z,100070.98
2022-10-06T00:04:36.059Z,100072.82
2022-10-06T00:07:11.837Z,100072.52
2022-10-06T00:10:12.645Z,100078.54
2022-10-06T00:12:49.707Z,100076.03
2022-10-06T00:15:50.078Z,100078.59
2022-10-06T00:18:22.266Z,100080.45
2022-10-06T00:21:03.959Z,100088.59
2022-10-06T00:23:54.815Z,100087.30
2022-10-06T00:26:34.644Z,100085.06
2022-10-06T00:29:07.602Z,100084.97
2022-10-06T00:31:38.275Z,100082.41
2022-10-06T00:34:19.487Z,100080.70
2022-10-06T00:37:00.519Z,100080.13
2022-10-06T00:39:34.032Z,100076.23
2022-10-06T00:42:46.176Z,100077.71
2022-10-06T00:45:57.920Z,100079.02
2022-10-06T00:49:18.886Z,100084.73
2022-10-06T00:52:08.245Z,100083.88
2022-10-06T00:55:18.843Z,100081.98
2022-10-06T00:58:07.146Z,100084.03
2022-10-06T01:01:34.156Z,100085.73
2022-10-06T01:04:34.635Z,100084.22
2022-10-06T01:07:20.752Z,100081.59
2022-10-06T01:10:38.918Z,100089.70
2022-10-06T01:14:03.824Z,100092.45
2022-10-06T01:17:07.624Z,100094.94
2022-10-06T01:20:13.842Z,100100.00
2022-10-06T01:24:05.349Z,100105.46
2022-10-06T01:27:48.922Z,100104.95
2022-10-06T01:30:45.858Z,100112.27
2022-10-06T01:34:31.645Z,100114.36
2022-10-06T01:37:44.552Z,100112.58
2022-10-06T01:40:57.934Z,100109.40
2022-10-06T01:43:43.513Z,100111.22
2022-10-06T01:46:52.896Z,100114.48
2022-10-06T01:49:22.883Z,100114.30
2022-10-06T01:52:04.960Z,100117.00
2022-10-06T01:54:35.843Z,100119.50
2022-10-06T01:58:12.944Z,100123.13
2022-10-06T02:01:04.878Z,100125.80
2022-10-06T02:03:43.885Z,100129.30
2022-10-06T02:06:16.696Z,100126.54
2022-10-06T02:09:03.370Z,100126.73
2022-10-06T02:11:57.488Z,100120.98
2022-10-06T02:14:53.586Z,100123.23
2022-10-06T02:17:41.520Z,100129.95
2022-10-06T02:20:12.040Z,100133.38
2022-10-06T02:22:43.410Z,100138.73
2022-10-06T02:25:17.914Z,100139.01
2022-10-06T02:28:06.432Z,100142.17
2022-10-06T02:30:38.691Z,100144.91
2022-10-06T02:33:14.685Z,100147.73
2022-10-06T02:36:00.230Z,100157.61
2022-10-06T02:38:36.005Z,100157.02
2022-10-06T02:41:23.638Z,100159.31
2022-10-06T02:44:19.938Z,100158.90
2022-10-06T02:47:43.667Z,100167.48
2022-10-06T02:50:20.474Z,100171.30
2022-10-06T02:53:12.677Z,100171.09
2022-10-06T02:55:45.384Z,100173.41
2022-10-06T02:58:40.651Z,100177.05
2022-10-06T03:02:11.974Z,100180.58
2022-10-06T03:05:19.256Z,100180.68
2022-10-06T03:08:26.879Z,100187.98
2022-10-06T03:11:30.430Z,100189.48
2022-10-06T03:14:19.095Z,100192.30
2022-10-06T03:16:59.470Z,100200.65
2022-10-06T03:19:57.628Z,100203.73
2022-10-06T03:22:31.788Z,100204.10
2022-10-06T03:26:01.842Z,100207.10
2022-10-06T03:29:12.782Z,100201.39
2022-10-06T03:32:35.658Z,100197.65
2022-10-06T03:35:14.828Z,100207.66
2022-10-06T03:38:05.824Z,100211.03
2022-10-06T03:41:12.781Z,100214.39
2022-10-06T03:44:05.553Z,100216.52
2022-10-06T03:47:16.209Z,100224.34
2022-10-06T03:49:48.635Z,100220.70
2022-10-06T03:52:26.119Z,100218.40
2022-10-06T03:55:07.682Z,100223.58
2022-10-06T03:57:49.849Z,100229.91
2022-10-06T04:00:45.940Z,100227.11
2022-10-06T04:03:14.041Z,100227.30
2022-10-06T04:06:28.249Z,100227.25
2022-10-06T04:09:14.924Z,100231.60
2022-10-06T04:11:54.871Z,100233.91
2022-10-06T04:14:35.586Z,100234.95
2022-10-06T04:17:15.208Z,100231.04
2022-10-06T04:20:03.350Z,100236.27
2022-10-06T04:22:34.603Z,100242.05
2022-10-06T04:25:14.545Z,100245.81
2022-10-06T04:28:21.499Z,100255.33
2022-10-06T04:31:19.505Z,100258.41
2022-10-06T04:34:16.665Z,100259.06
2022-10-06T04:36:53.176Z,100262.84
2022-10-06T04:39:28.849Z,100263.90
2022-10-06T04:42:43.510Z,100264.48
2022-10-06T04:45:57.247Z,100266.19
2022-10-06T04:48:33.682Z,100273.02
2022-10-06T04:51:32.207Z,100280.98
2022-10-06T04:54:46.652Z,100281.73
2022-10-06T04:57:16.976Z,100277.93
2022-10-06T05:00:10.043Z,100273.96
2022-10-06T05:03:01.810Z,100272.83
2022-10-06T05:05:30.810Z,100284.10
2022-10-06T05:09:14.388Z,100293.09
2022-10-06T05:12:17.477Z,100306.29
2022-10-06T05:15:40.044Z,100305.73
2022-10-06T05:18:37.607Z,100309.41
2022-10-06T05:21:30.799Z,100315.68
2022-10-06T05:24:23.692Z,100315.94
2022-10-06T05:27:08.027Z,100317.95
2022-10-06T05:29:42.127Z,100318.58
2022-10-06T05:32:36.239Z,100325.27
2022-10-06T05:39:32.298Z,100335.30
2022-10-06T05:42:09.007Z,100336.44
2022-10-06T05:44:52.218Z,100340.46
2022-10-06T05:47:59.895Z,100348.02
2022-10-06T05:50:27.024Z,100350.34
2022-10-06T05:52:54.957Z,100353.88
2022-10-06T05:55:22.780Z,100361.49
2022-10-06T05:57:59.480Z,100365.41
2022-10-06T06:00:37.792Z,100368.65
2022-10-06T06:03:09.001Z,100379.14
2022-10-06T06:05:46.053Z,100379.04
2022-10-06T06:08:22.247Z,100387.55
2022-10-06T06:10:49.246Z,100394.39
2022-10-06T06:13:23.116Z,100408.27
2022-10-06T06:16:03.587Z,100417.84
2022-10-06T06:18:36.898Z,100422.20
2022-10-06T06:21:06.910Z,100417.91
2022-10-06T06:23:46.207Z,100426.73
2022-10-06T06:26:23.169Z,100429.56
2022-10-06T06:29:09.542Z,100440.79
2022-10-06T06:31:43.732Z,100441.47
2022-10-06T06:34:15.535Z,100444.84
2022-10-06T06:36:54.678Z,100452.60
2022-10-06T06:39:21.956Z,100456.63
2022-10-06T06:42:08.710Z,100469.83
2022-10-06T06:44:39.092Z,100471.98
2022-10-06T06:47:06.163Z,100477.17
2022-10-06T06:49:42.521Z,100495.02
2022-10-06T06:52:10.378Z,100500.93
2022-10-06T06:54:40.090Z,100513.02
2022-10-06T06:57:07.590Z,100517.46
2022-10-06T06:59:37.321Z,100523.06
2022-10-06T07:02:04.652Z,100522.13
2022-10-06T07:04:36.902Z,100528.33
2022-10-06T07:07:11.422Z,100530.74
2022-10-06T07:10:34.291Z,100531.14
2022-10-06T07:13:07.899Z,100540.02
2022-10-06T07:15:53.584Z,100543.77
2022-10-06T07:18:41.725Z,100548.64
2022-10-06T07:21:32.116Z,100551.98
2022-10-06T07:24:27.844Z,100559.48
2022-10-06T07:27:06.615Z,100568.45
2022-10-06T07:29:56.456Z,100573.09
2022-10-06T07:32:34.716Z,100584.59
2022-10-06T07:35:38.285Z,100588.23
2022-10-06T07:38:14.251Z,100598.20
2022-10-06T07:41:14.563Z,100601.95
2022-10-06T07:43:53.397Z,100599.09
2022-10-06T07:46:20.865Z,100600.61
2022-10-06T07:48:51.368Z,100611.64
2022-10-06T07:51:20.151Z,100622.55
2022-10-06T07:53:50.307Z,100628.44
2022-10-06T07:56:19.941Z,100630.34
2022-10-06T07:58:55.453Z,100640.56
2022-10-06T08:01:33.834Z,100634.88
2022-10-06T08:04:44.627Z,100645.90
2022-10-06T08:07:15.554Z,100643.72
2022-10-06T08:09:43.629Z,100645.71
2022-10-06T08:12:34.432Z,100652.05
2022-10-06T08:15:06.024Z,100655.84
2022-10-06T08:17:36.201Z,100664.05
2022-10-06T08:20:20.240Z,100682.48
2022-10-06T08:22:57.962Z,100688.84
2022-10-06T08:25:25.317Z,100680.77
2022-10-06T08:28:08.604Z,100684.52
2022-10-06T08:30:59.557Z,100686.37
2022-10-06T08:33:47.939Z,100692.55
2022-10-06T08:36:20.244Z,100695.52
2022-10-06T08:38:50.824Z,100700.65
2022-10-06T08:41:45.591Z,100710.35
2022-10-06T08:44:28.061Z,100714.73
2022-10-06T08:47:13.280Z,100718.65
2022-10-06T08:49:46.616Z,100722.29
2022-10-06T08:52:22.412Z,100726.27
2022-10-06T08:55:13.074Z,100732.91
2022-10-06T08:58:18.492Z,100740.95
2022-10-06T09:01:13.381Z,100735.73
2022-10-06T09:03:51.850Z,100744.77
2022-10-06T09:06:34.850Z,100750.09
2022-10-06T09:10:11.803Z,100746.74
2022-10-06T09:13:21.798Z,100754.25
2022-10-06T09:16:07.124Z,100759.19
2022-10-06T09:19:09.086Z,100757.66
2022-10-06T09:21:46.078Z,100762.17
2022-10-06T09:24:47.578Z,100765.49
2022-10-06T09:28:01.145Z,100768.42
2022-10-06T09:31:21.191Z,100782.65
2022-10-06T09:33:52.924Z,100780.38
2022-10-06T09:36:31.500Z,100796.80
2022-10-06T09:39:20.238Z,100796.21
2022-10-06T09:41:54.665Z,100795.33
2022-10-06T09:44:37.764Z,100799.96
2022-10-06T09:47:43.794Z,100808.45
2022-10-06T09:50:29.537Z,100809.75
2022-10-06T09:53:04.369Z,100821.47
2022-10-06T09:55:39.951Z,100823.02
2022-10-06T09:58:40.895Z,100825.27
2022-10-06T10:01:19.051Z,100831.27
2022-10-06T10:04:21.594Z,100834.97
2022-10-06T10:06:53.438Z,100833.47
2022-10-06T10:09:27.148Z,100836.90
2022-10-06T10:12:24.720Z,100837.58
2022-10-06T10:15:19.118Z,100847.17
2022-10-06T10:17:55.487Z,100846.02
2022-10-06T10:20:28.261Z,100853.42
2022-10-06T10:23:01.844Z,100851.17
2022-10-06T10:26:17.713Z,100849.04
2022-10-06T10:29:06.622Z,100853.16
2022-10-06T10:32:07.214Z,100857.20
2022-10-06T10:35:13.111Z,100856.58
2022-10-06T10:37:57.064Z,100864.64
2022-10-06T10:40:35.992Z,100866.98
2022-10-06T10:43:31.661Z,100876.25
2022-10-06T10:46:27.458Z,100874.00
2022-10-06T10:49:43.222Z,100876.95
2022-10-06T10:52:29.094Z,100874.77
2022-10-06T10:55:18.142Z,100872.95
2022-10-06T10:57:56.180Z,100870.12
2022-10-06T11:00:37.325Z,100881.55
2022-10-06T11:03:15.258Z,100876.86
2022-10-06T11:05:59.931Z,100882.52
2022-10-06T11:08:46.894Z,100880.13
2022-10-06T11:11:43.610Z,100888.35
2022-10-06T11:14:45.288Z,100886.52
2022-10-06T11:17:39.921Z,100892.90
2022-10-06T11:20:31.376Z,100886.85
2022-10-06T11:23:41.412Z,100893.20
2022-10-06T11:26:15.283Z,100892.74
2022-10-06T11:28:52.490Z,100895.23
2022-10-06T11:31:38.403Z,100896.63
2022-10-06T11:34:08.078Z,100889.46
2022-10-06T11:37:15.018Z,100889.91
2022-10-06T11:40:11.871Z,100889.85
2022-10-06T11:42:57.110Z,100899.44
2022-10-06T11:45:39.167Z,100903.71
2022-10-06T11:48:29.468Z,100906.31
2022-10-06T11:51:16.885Z,100904.54
2022-10-06T11:53:44.642Z,100910.71
2022-10-06T11:56:16.975Z,100907.37
2022-10-06T11:58:50.916Z,100907.35
2022-10-06T12:01:48.145Z,100909.17
2022-10-06T12:04:19.575Z,100909.19
2022-10-06T12:06:58.367Z,100910.27
2022-10-06T12:09:25.586Z,100915.61
2022-10-06T12:11:56.838Z,100910.01
2022-10-06T12:18:22.065Z,100919.05
2022-10-06T12:21:28.696Z,100920.38
2022-10-06T12:24:06.829Z,100929.86
2022-10-06T12:26:40.008Z,100932.63
2022-10-06T12:29:31.167Z,100931.57
2022-10-06T12:32:12.439Z,100924.09
2022-10-06T12:34:39.557Z,100925.96
2022-10-06T12:37:29.450Z,100931.34
2022-10-06T12:40:15.254Z,100937.60
2022-10-06T12:42:45.758Z,100933.60
2022-10-06T12:45:16.521Z,100942.18
2022-10-06T12:47:47.033Z,100940.38
2022-10-06T12:50:22.308Z,100938.77
2022-10-06T12:53:05.177Z,100935.98
2022-10-06T12:55:43.564Z,100940.80
2022-10-06T12:58:19.346Z,100938.88
2022-10-06T13:00:47.614Z,100941.25
2022-10-06T13:03:18.254Z,100943.17
2022-10-06T13:05:51.545Z,100939.50
2022-10-06T13:08:26.171Z,100948.96
2022-10-06T13:11:22.565Z,100951.21
2022-10-06T13:14:00.475Z,100945.09
2022-10-06T13:16:36.347Z,100944.37
2022-10-06T13:19:04.743Z,100950.92
2022-10-06T13:21:36.522Z,100951.63
2022-10-06T13:24:03.533Z,100960.46
2022-10-06T13:26:34.259Z,100961.60
2022-10-06T13:30:10.553Z,100962.81
2022-10-06T13:32:39.254Z,100966.04
2022-10-06T13:35:12.653Z,100968.73
2022-10-06T13:37:41.307Z,100969.61
2022-10-06T13:40:45.508Z,100975.36
2022-10-06T13:43:18.620Z,100972.85
2022-10-06T13:45:48.783Z,100976.48
2022-10-06T13:48:21.394Z,100978.79
2022-10-06T13:50:50.204Z,100980.59
2022-10-06T13:53:31.368Z,100987.65
2022-10-06T13:55:59.636Z,100987.87
2022-10-06T13:58:30.250Z,100988.27
2022-10-06T14:01:01.170Z,100989.78
2022-10-06T14:03:37.923Z,100982.48
2022-10-06T14:06:19.804Z,100982.73
2022-10-06T14:08:55.108Z,100976.85
2022-10-06T14:11:28.782Z,100974.30
2022-10-06T14:14:03.804Z,100977.46
2022-10-06T14:16:34.448Z,100979.93
2022-10-06T14:19:07.219Z,100972.80
2022-10-06T14:21:42.164Z,100976.10
2022-10-06T14:24:16.721Z,100977.39
2022-10-06T14:26:49.951Z,100982.92
2022-10-06T14:29:25.017Z,100983.77
2022-10-06T14:31:53.655Z,100986.39
2022-10-06T14:34:22.741Z,100987.75
2022-10-06T14:36:51.944Z,100993.34
2022-10-06T14:39:20.610Z,100993.88
2022-10-06T14:41:49.748Z,100993.89
2022-10-06T14:44:17.957Z,100993.27
2022-10-06T14:46:48.762Z,100993.16
2022-10-06T14:49:17.766Z,100993.77
2022-10-06T14:51:46.547Z,100995.25
2022-10-06T14:54:17.678Z,100999.08
2022-10-06T14:56:45.805Z,100997.02
2022-10-06T14:59:17.417Z,101001.08
2022-10-06T15:01:47.096Z,101000.00
2022-10-06T15:04:19.811Z,101005.77
2022-10-06T15:07:06.841Z,101006.02
2022-10-06T15:09:35.994Z,101011.67
2022-10-06T15:12:06.558Z,101007.39
2022-10-06T15:14:40.053Z,101008.58
2022-10-06T15:17:08.659Z,101007.20
2022-10-06T15:19:37.864Z,101011.39
2022-10-06T15:22:09.038Z,101019.64
2022-10-06T15:24:37.700Z,101019.61
2022-10-06T15:27:25.203Z,101021.69
2022-10-06T15:29:54.065Z,101022.25
2022-10-06T15:32:22.700Z,101023.98
2022-10-06T15:34:52.428Z,101026.70
2022-10-06T15:37:20.577Z,101027.27
2022-10-06T15:39:52.331Z,101031.50
2022-10-06T15:42:24.338Z,101033.25
2022-10-06T15:44:52.566Z,101035.66
2022-10-06T15:47:21.123Z,101038.20
2022-10-06T15:49:49.489Z,101043.24
2022-10-06T15:52:18.783Z,101048.02
2022-10-06T15:54:48.793Z,101047.86
2022-10-06T15:57:20.943Z,101049.28
2022-10-06T15:59:49.866Z,101051.73
2022-10-06T16:02:20.122Z,101045.73
2022-10-06T16:05:04.965Z,101045.14
2022-10-06T16:07:34.208Z,101045.20
2022-10-06T16:10:02.542Z,101049.91
2022-10-06T16:12:31.022Z,101052.35
2022-10-06T16:15:00.211Z,101057.46
2022-10-06T16:17:28.297Z,101057.50
2022-10-06T16:19:56.599Z,101059.52
2022-10-06T16:22:24.694Z,101061.52
2022-10-06T16:24:53.022Z,101064.01
2022-10-06T16:27:21.478Z,101069.02
2022-10-06T16:29:49.589Z,101071.52
2022-10-06T16:32:18.267Z,101069.70
2022-10-06T16:34:50.622Z,101069.58
2022-10-06T16:37:19.432Z,101070.17
2022-10-06T16:39:47.637Z,101071.60
2022-10-06T16:42:18.643Z,101071.95
2022-10-06T16:44:46.854Z,101075.58
2022-10-06T16:47:15.569Z,101082.38
2022-10-06T16:49:46.568Z,101084.95
2022-10-06T16:52:15.195Z,101088.67
2022-10-06T16:54:43.589Z,101091.76
2022-10-06T16:57:11.830Z,101096.11
2022-10-06T16:59:44.437Z,101095.80
2022-10-06T17:02:16.188Z,101101.88
2022-10-06T17:04:44.472Z,101105.89
2022-10-06T17:07:12.587Z,101107.41
2022-10-06T17:09:51.072Z,101112.60
2022-10-06T17:12:29.563Z,101115.30
2022-10-06T17:14:57.870Z,101117.96
2022-10-06T17:17:26.312Z,101117.14
2022-10-06T17:20:04.494Z,101118.71
2022-10-06T17:22:35.902Z,101118.16
2022-10-06T17:25:11.330Z,101116.77
2022-10-06T17:27:43.626Z,101117.30
2022-10-06T17:30:17.959Z,101113.48
2022-10-06T17:32:48.435Z,101115.30
2022-10-06T17:35:20.149Z,101116.70
2022-10-06T17:37:50.664Z,101118.64
2022-10-06T17:40:21.762Z,101120.16
2022-10-06T17:42:53.042Z,101113.67
2022-10-06T17:45:23.130Z,101116.75
2022-10-06T17:47:54.349Z,101113.32
2022-10-06T17:50:25.209Z,101112.00
2022-10-06T17:52:53.770Z,101113.29
2022-10-06T17:55:22.836Z,101118.98
2022-10-06T17:57:53.531Z,101123.96
2022-10-06T18:00:27.801Z,101124.86
2022-10-06T18:03:03.433Z,101129.63
2022-10-06T18:05:34.580Z,101131.38
2022-10-06T18:08:05.891Z,101131.43
2022-10-06T18:11:08.853Z,101138.63
2022-10-06T18:13:38.391Z,101136.31
2022-10-06T18:16:19.876Z,101132.61
2022-10-06T18:18:59.274Z,101132.29
2022-10-06T18:21:39.226Z,101138.38
2022-10-06T18:24:13.636Z,101134.05
2022-10-06T18:26:44.817Z,101133.30
2022-10-06T18:29:13.607Z,101133.05
2022-10-06T18:31:42.590Z,101134.06
2022-10-06T18:37:05.421Z,101135.50
2022-10-06T18:39:40.675Z,101137.36
2022-10-06T18:42:12.249Z,101139.52
2022-10-06T18:44:59.347Z,101140.46
2022-10-06T18:47:57.685Z,101141.52
2022-10-06T18:50:33.082Z,101144.94
2022-10-06T18:53:07.165Z,101143.39
2022-10-06T18:55:35.644Z,101153.85
2022-10-06T18:58:05.374Z,101154.54
2022-10-06T19:00:33.970Z,101154.20
2022-10-06T19:03:07.411Z,101155.11
2022-10-06T19:05:44.386Z,101154.59
2022-10-06T19:08:12.838Z,101155.13
2022-10-06T19:11:02.365Z,101155.14
2022-10-06T19:13:30.596Z,101156.59
2022-10-06T19:16:00.221Z,101164.84
2022-10-06T19:18:37.464Z,101164.52
2022-10-06T19:21:09.659Z,101165.17
2022-10-06T19:23:39.089Z,101165.08
2022-10-06T19:26:14.292Z,101166.29
2022-10-06T19:28:50.004Z,101167.88
2022-10-06T19:31:20.446Z,101163.79
2022-10-06T19:33:48.968Z,101170.48
2022-10-06T19:36:24.428Z,101170.67
2022-10-06T19:39:07.712Z,101170.27
2022-10-06T19:42:00.391Z,101171.42
2022-10-06T19:44:31.408Z,101168.91
2022-10-06T19:47:00.283Z,101173.60
2022-10-06T19:49:31.428Z,101178.38
2022-10-06T19:51:59.937Z,101180.88
2022-10-06T19:54:33.750Z,101178.21
2022-10-06T19:57:07.393Z,101182.16
2022-10-06T19:59:38.436Z,101186.61
2022-10-06T20:02:23.287Z,101186.72
2022-10-06T20:04:54.888Z,101190.05
2022-10-06T20:07:28.050Z,101187.33
2022-10-06T20:09:58.490Z,101189.41
2022-10-06T20:12:29.325Z,101193.35
2022-10-06T20:15:07.048Z,101194.71
2022-10-06T20:17:43.044Z,101198.88
2022-10-06T20:20:20.811Z,101200.63
2022-10-06T20:23:04.026Z,101197.91
2022-10-06T20:25:49.500Z,101196.60
2022-10-06T20:28:35.892Z,101197.75
2022-10-06T20:31:20.903Z,101195.27
2022-10-06T20:33:53.947Z,101202.00
2022-10-06T20:36:30.797Z,101200.02
2022-10-06T20:39:20.928Z,101196.83
2022-10-06T20:41:53.965Z,101196.73
2022-10-06T20:44:23.289Z,101200.05
2022-10-06T20:46:52.318Z,101200.14
2022-10-06T20:49:21.649Z,101198.30
2022-10-06T20:51:52.099Z,101197.83
2022-10-06T20:54:35.311Z,101200.36
2022-10-06T20:57:06.471Z,101202.41
2022-10-06T20:59:35.681Z,101204.85
2022-10-06T21:02:05.675Z,101206.72
2022-10-06T21:04:35.114Z,101205.09
2022-10-06T21:07:07.958Z,101198.61
2022-10-06T21:09:51.259Z,101194.56
2022-10-06T21:12:23.529Z,101197.73
2022-10-06T21:14:53.810Z,101199.66
2022-10-06T21:17:22.387Z,101200.27
2022-10-06T21:19:50.830Z,101200.02
2022-10-06T21:22:22.151Z,101200.70
2022-10-06T21:24:51.030Z,101201.44
2022-10-06T21:27:21.326Z,101199.77
2022-10-06T21:29:57.708Z,101197.08
2022-10-06T21:32:28.791Z,101191.66
2022-10-06T21:35:02.176Z,101193.02
2022-10-06T21:37:41.298Z,101193.59
2022-10-06T21:40:21.156Z,101192.77
2022-10-06T21:43:01.405Z,101189.13
2022-10-06T21:45:44.887Z,101187.91
2022-10-06T21:48:40.359Z,101186.11
2022-10-06T21:51:17.107Z,101185.84
2022-10-06T21:53:58.860Z,101183.59
2022-10-06T21:56:41.502Z,101182.61
2022-10-06T21:59:21.997Z,101182.80
2022-10-06T22:01:54.783Z,101184.27
2022-10-06T22:04:48.069Z,101186.58
2022-10-06T22:07:58.681Z,101189.98
2022-10-06T22:11:07.030Z,101188.29
2022-10-06T22:13:48.899Z,101186.85
2022-10-06T22:17:15.085Z,101187.33
2022-10-06T22:20:02.934Z,101186.09
2022-10-06T22:22:55.860Z,101184.71
2022-10-06T22:25:33.590Z,101184.65
2022-10-06T22:28:27.513Z,101176.83
2022-10-06T22:31:14.861Z,101177.50
2022-10-06T22:34:01.238Z,101181.91
2022-10-06T22:36:50.962Z,101181.33
2022-10-06T22:39:20.276Z,101180.81
2022-10-06T22:45:08.929Z,101181.27
2022-10-06T22:51:20.435Z,101181.78
2022-10-06T22:54:48.926Z,101179.44
2022-10-06T23:00:33.158Z,101182.22
2022-10-06T23:03:37.520Z,101179.18
2022-10-06T23:07:15.251Z,101178.20
2022-10-06T23:13:30.706Z,101176.55
2022-10-06T23:16:39.592Z,101173.77
2022-10-06T23:19:14.973Z,101167.19
2022-10-06T23:22:18.996Z,101166.86
2022-10-06T23:25:07.957Z,101171.06
2022-10-06T23:28:22.176Z,101164.71
2022-10-06T23:32:38.825Z,101165.48
2022-10-06T23:35:21.288Z,101163.58
2022-10-06T23:38:25.560Z,101163.98
2022-10-06T23:45:22.687Z,101161.98
2022-10-06T23:48:33.776Z,101160.20
2022-10-06T23:51:46.090Z,101157.40
2022-10-06T23:54:50.900Z,101159.65
2022-10-06T23:57:50.365Z,101160.59
